Flight Track Log - Related Links

Times and Time Zones

All times are in EST time to prevent confusion due to time zone crossing. See the SKW5515 flight status page for this flight to view local times or setup timezone preferences in your user account.

Time Position Orientation Groundspeed Altitude Reporting Facility
EST Latitude Longitude Course Direction KTS MPH feet Rate Location/Type
Fri 01:13:00 AM 44.6535 -110.7030 319° Northwest  Level Estimated
Fri 01:14:00 AM 44.7196 -110.7961 315° West  Level Estimated
Fri 01:15:00 AM 44.7855 -110.8894 315° West  Level Estimated
Fri 01:16:00 AM 44.8514 -110.9829 315° West  Level Estimated
Fri 01:17:00 AM 44.9173 -111.0767 315° West  Level Estimated
Fri 01:18:00 AM 44.9830 -111.1706 315° West  Level Estimated
Fri 01:19:00 AM 45.0486 -111.2647 315° West  Level Estimated
Fri 01:20:00 AM 45.1142 -111.3591 315° West  Level Estimated
Fri 01:21:00 AM 45.1797 -111.4537 315° West  Level Estimated
Fri 01:22:00 AM 45.2451 -111.5485 314° West  Level Estimated
Fri 01:23:00 AM 45.3105 -111.6435 314° West  Level Estimated
Fri 01:24:00 AM 45.3757 -111.7388 314° West  Level Estimated
Fri 01:25:00 AM 45.4409 -111.8343 314° West  Level Estimated
Fri 01:26:00 AM 45.5060 -111.9299 314° West  Level Estimated
Fri 01:27:00 AM 45.5711 -112.0258 314° West  Level Estimated
Fri 01:28:00 AM 45.6360 -112.1220 314° West  Level Estimated
Fri 01:29:00 AM 45.7009 -112.2183 314° West  Level Estimated
Fri 01:30:00 AM 45.7657 -112.3149 314° West  Level Estimated
Fri 01:31:00 AM 45.8304 -112.4117 314° West  Level Estimated
Fri 01:32:00 AM 45.8950 -112.5087 314° West  Level Estimated
Fri 01:33:00 AM 45.9595 -112.6060 314° West  Level Estimated
Fri 01:34:00 AM 46.0240 -112.7035 314° West  Level Estimated
Fri 01:35:00 AM 46.0883 -112.8012 314° West  Level Estimated
Fri 01:36:00 AM 46.1526 -112.8991 313° West  Level Estimated
Fri 01:37:00 AM 46.2168 -112.9973 313° West  Level Estimated
Fri 01:38:00 AM 46.2809 -113.0956 313° West  Level Estimated
Fri 01:39:00 AM 46.3450 -113.1943 313° West  Level Estimated
Fri 01:40:00 AM 46.4089 -113.2931 313° West  Level Estimated
Fri 01:41:00 AM 46.4728 -113.3922 313° West  Level Estimated
Fri 01:42:00 AM 46.5366 -113.4915 313° West  Level Estimated
Fri 01:43:00 AM 46.6003 -113.5911 313° West  Level Estimated
Fri 01:44:00 AM 46.6639 -113.6909 313° West  Level Estimated
Fri 01:45:00 AM 46.7274 -113.7909 313° West  Level Estimated
Fri 01:46:00 AM 46.7908 -113.8912 313° West  Level Estimated
Fri 01:47:00 AM 46.8542 -113.9916 313° West  Level Estimated
Fri 01:48:00 AM 46.9163 -114.0906 313° West  Level Estimated
Fri 01:49:00 AM 46.9163 -114.0906 146° Southeast  Level Estimated
Fri 01:50:00 AM 46.9163 -114.0906 146° Southeast  Level Estimated
Fri 01:51:00 AM 46.9163 -114.0906 146° Southeast  Level Estimated
Fri 01:52:00 AM 46.9163 -114.0906 146° Southeast  Level Estimated
Fri 01:53:00 AM 46.9163 -114.0906 146° Southeast  Level Estimated
Fri 01:54:00 AM 46.9163 -114.0906 146° Southeast  Level Estimated
Fri 01:55:00 AM 46.9163 -114.0906 146° Southeast  Level Estimated
Fri 01:56:00 AM 46.9163 -114.0906 146° Southeast  Level Estimated
Fri 01:57:00 AM 46.9163 -114.0906 146° Southeast  Level Estimated
Fri 01:58:00 AM 46.9163 -114.0906 146° Southeast  Level Estimated
Fri 01:59:00 AM 46.9163 -114.0906 146° Southeast  Level Estimated
Fri 02:00:00 AM 46.9163 -114.0906 146° Southeast  Level Estimated
Fri 02:01:00 AM 46.9163 -114.0906 146° Southeast  Level Estimated
Fri 02:02:00 AM 46.9163 -114.0906 146° Southeast  Level Estimated
Fri 02:03:00 AM 46.9163 -114.0906 146° Southeast  Level Estimated
Fri 02:04:00 AM 46.9163 -114.0906 146° Southeast  Level Estimated

Login

Don't have an account? Register now (free) for customized features, flight alerts, and more!